createdAt,value
2023-02-05T00:02:27.982Z,80.37
2023-02-05T00:05:13.529Z,79.41
2023-02-05T00:07:59.320Z,79.43
2023-02-05T00:10:52.546Z,78.82
2023-02-05T00:13:40.244Z,79.14
2023-02-05T00:16:25.752Z,79.15
2023-02-05T00:19:11.235Z,78.98
2023-02-05T00:21:57.288Z,78.58
2023-02-05T00:24:42.758Z,78.76
2023-02-05T00:27:28.318Z,77.72
2023-02-05T00:30:14.305Z,77.99
2023-02-05T00:32:59.725Z,77.38
2023-02-05T00:35:46.059Z,77.33
2023-02-05T00:38:31.356Z,77.75
2023-02-05T00:41:18.190Z,77.03
2023-02-05T00:44:04.642Z,77.07
2023-02-05T00:46:50.271Z,76.83
2023-02-05T00:49:35.785Z,77.34
2023-02-05T00:52:21.304Z,77.07
2023-02-05T00:55:06.982Z,76.76
2023-02-05T00:57:52.963Z,77.77
2023-02-05T01:00:38.891Z,78.60
2023-02-05T01:03:24.931Z,78.73
2023-02-05T01:06:10.595Z,80.04
2023-02-05T01:08:59.810Z,80.70
2023-02-05T01:11:45.243Z,80.70
2023-02-05T01:14:33.311Z,80.62
2023-02-05T01:17:18.518Z,79.85
2023-02-05T01:20:05.828Z,80.46
2023-02-05T01:22:51.410Z,79.78
2023-02-05T01:25:37.120Z,79.20
2023-02-05T01:28:22.844Z,78.92
2023-02-05T01:31:09.150Z,78.71
2023-02-05T01:33:54.775Z,78.44
2023-02-05T01:36:40.831Z,78.89
2023-02-05T01:39:26.055Z,78.95
2023-02-05T01:42:23.376Z,78.54
2023-02-05T01:45:25.110Z,78.77
2023-02-05T01:48:10.680Z,78.13
2023-02-05T01:51:05.424Z,78.56
2023-02-05T01:53:51.867Z,78.50
2023-02-05T01:56:42.915Z,78.68
2023-02-05T01:59:33.575Z,78.55
2023-02-05T02:02:18.821Z,78.17
2023-02-05T02:05:11.969Z,78.26
2023-02-05T02:07:58.180Z,78.44
2023-02-05T02:10:45.550Z,78.38
2023-02-05T02:13:33.756Z,78.23
2023-02-05T02:16:23.362Z,78.32
2023-02-05T02:19:26.705Z,79.03
2023-02-05T02:22:24.419Z,79.16
2023-02-05T02:25:44.378Z,79.52
2023-02-05T02:28:40.488Z,79.41
2023-02-05T02:31:44.296Z,79.85
2023-02-05T02:34:45.003Z,79.88
2023-02-05T02:37:37.246Z,80.13
2023-02-05T02:40:35.008Z,80.37
2023-02-05T02:43:46.052Z,79.71
2023-02-05T02:46:50.965Z,80.01
2023-02-05T02:49:47.202Z,80.49
2023-02-05T02:52:39.222Z,80.64
2023-02-05T02:55:26.286Z,80.14
2023-02-05T02:58:36.228Z,80.62
2023-02-05T03:01:25.662Z,80.44
2023-02-05T03:04:27.459Z,80.53
2023-02-05T03:07:26.502Z,80.69
2023-02-05T03:10:23.523Z,80.72
2023-02-05T03:13:11.473Z,81.52
2023-02-05T03:16:00.588Z,81.13
2023-02-05T03:18:47.611Z,81.33
2023-02-05T03:21:38.677Z,81.27
2023-02-05T03:24:24.571Z,81.05
2023-02-05T03:27:10.510Z,80.96
2023-02-05T03:29:57.459Z,80.78
2023-02-05T03:33:02.508Z,81.15
2023-02-05T03:36:16.456Z,80.79
2023-02-05T03:39:21.178Z,80.84
2023-02-05T03:42:18.066Z,81.59
2023-02-05T03:45:44.053Z,81.30
2023-02-05T03:49:05.874Z,81.25
2023-02-05T03:52:05.412Z,81.48
2023-02-05T03:55:11.940Z,80.80
2023-02-05T03:58:04.616Z,81.67
2023-02-05T04:00:50.542Z,82.50
2023-02-05T04:03:37.193Z,81.97
2023-02-05T04:06:25.560Z,81.56
2023-02-05T04:09:12.544Z,81.97
2023-02-05T04:11:58.439Z,81.63
2023-02-05T04:14:44.507Z,81.33
2023-02-05T04:17:33.800Z,81.66
2023-02-05T04:20:22.675Z,81.48
2023-02-05T04:23:08.554Z,81.56
2023-02-05T04:25:56.028Z,82.11
2023-02-05T04:28:49.854Z,82.58
2023-02-05T04:31:35.926Z,82.17
2023-02-05T04:34:21.483Z,82.68
2023-02-05T04:37:07.584Z,82.14
2023-02-05T04:39:52.932Z,81.99
2023-02-05T04:42:38.489Z,82.51
2023-02-05T04:45:24.134Z,81.87
2023-02-05T04:48:09.435Z,81.94
2023-02-05T04:50:54.791Z,81.94
2023-02-05T04:53:41.715Z,82.07
2023-02-05T04:56:27.831Z,81.53
2023-02-05T04:59:13.041Z,81.72
2023-02-05T05:01:59.381Z,81.66
2023-02-05T05:04:44.682Z,82.43
2023-02-05T05:07:30.938Z,81.93
2023-02-05T05:10:16.607Z,82.29
2023-02-05T05:13:02.050Z,82.32
2023-02-05T05:15:54.755Z,82.20
2023-02-05T05:18:41.164Z,82.74
2023-02-05T05:21:26.777Z,82.26
2023-02-05T05:24:12.775Z,82.13
2023-02-05T05:26:59.757Z,82.31
2023-02-05T05:29:46.565Z,81.95
2023-02-05T05:32:32.319Z,81.86
2023-02-05T05:35:17.785Z,81.77
2023-02-05T05:38:03.987Z,81.93
2023-02-05T05:41:08.138Z,81.78
2023-02-05T05:43:54.700Z,81.93
2023-02-05T05:46:40.018Z,81.52
2023-02-05T05:49:25.385Z,81.96
2023-02-05T05:52:11.338Z,81.93
2023-02-05T05:54:57.009Z,81.31
2023-02-05T05:57:42.474Z,82.18
2023-02-05T06:00:28.188Z,81.73
2023-02-05T06:03:13.518Z,82.13
2023-02-05T06:06:03.968Z,82.27
2023-02-05T06:08:50.145Z,81.65
2023-02-05T06:11:35.754Z,82.33
2023-02-05T06:14:21.218Z,81.98
2023-02-05T06:17:07.397Z,81.69
2023-02-05T06:19:52.784Z,81.60
2023-02-05T06:22:39.498Z,81.79
2023-02-05T06:25:24.877Z,81.66
2023-02-05T06:28:10.582Z,81.26
2023-02-05T06:30:56.157Z,81.08
2023-02-05T06:33:41.503Z,80.82
2023-02-05T06:36:27.070Z,81.16
2023-02-05T06:39:12.634Z,81.39
2023-02-05T06:41:58.138Z,81.59
2023-02-05T06:44:44.522Z,81.32
2023-02-05T06:47:29.806Z,80.91
2023-02-05T06:50:15.669Z,81.21
2023-02-05T06:53:01.832Z,81.21
2023-02-05T06:55:47.269Z,80.99
2023-02-05T06:58:33.315Z,81.77
2023-02-05T07:01:18.783Z,80.60
2023-02-05T07:04:06.709Z,80.44
2023-02-05T07:07:02.592Z,80.37
2023-02-05T07:09:48.905Z,80.74
2023-02-05T07:12:34.980Z,81.14
2023-02-05T07:15:21.049Z,81.17
2023-02-05T07:18:06.919Z,80.04
2023-02-05T07:20:58.519Z,80.47
2023-02-05T07:23:49.158Z,80.02
2023-02-05T07:26:36.104Z,79.72
2023-02-05T07:29:22.103Z,79.36
2023-02-05T07:32:08.892Z,79.35
2023-02-05T07:34:58.235Z,79.74
2023-02-05T07:37:51.972Z,78.71
2023-02-05T07:40:40.797Z,79.10
2023-02-05T07:43:27.217Z,78.75
2023-02-05T07:46:16.299Z,79.16
2023-02-05T07:49:02.320Z,78.68
2023-02-05T07:51:51.966Z,78.74
2023-02-05T07:54:37.711Z,79.13
2023-02-05T07:57:27.086Z,78.73
2023-02-05T08:00:13.977Z,78.29
2023-02-05T08:02:59.645Z,78.38
2023-02-05T08:05:46.085Z,78.39
2023-02-05T08:08:34.388Z,78.06
2023-02-05T08:11:19.892Z,78.11
2023-02-05T08:14:06.597Z,78.22
2023-02-05T08:16:54.905Z,77.73
2023-02-05T08:19:43.971Z,77.29
2023-02-05T08:22:31.856Z,77.42
2023-02-05T08:25:18.186Z,77.48
2023-02-05T08:28:07.259Z,77.37
2023-02-05T08:30:53.112Z,76.46
2023-02-05T08:33:39.333Z,76.74
2023-02-05T08:36:24.453Z,76.66
2023-02-05T08:39:09.798Z,76.33
2023-02-05T08:41:57.061Z,76.65
2023-02-05T08:44:43.477Z,75.81
2023-02-05T08:47:29.054Z,75.50
2023-02-05T08:50:15.649Z,75.22
2023-02-05T08:53:02.274Z,75.40
2023-02-05T08:55:58.605Z,73.88
2023-02-05T08:58:44.187Z,73.66
2023-02-05T09:01:34.642Z,73.79
2023-02-05T09:04:23.666Z,73.03
2023-02-05T09:07:10.295Z,73.21
2023-02-05T09:09:56.646Z,73.42
2023-02-05T09:12:43.185Z,73.74
2023-02-05T09:15:32.966Z,72.00
2023-02-05T09:18:20.021Z,73.31
2023-02-05T09:21:10.964Z,72.78
2023-02-05T09:23:57.461Z,73.72
2023-02-05T09:26:49.034Z,74.56
2023-02-05T09:29:38.292Z,73.46
2023-02-05T09:32:25.599Z,74.23
2023-02-05T09:35:12.669Z,75.53
2023-02-05T09:38:10.657Z,75.64
2023-02-05T09:41:28.279Z,75.17
2023-02-05T09:44:53.296Z,74.34
2023-02-05T09:48:05.019Z,74.30
2023-02-05T09:51:01.175Z,74.03
2023-02-05T09:53:58.496Z,73.89
2023-02-05T09:56:46.597Z,74.82
2023-02-05T09:59:33.702Z,74.80
2023-02-05T10:02:42.747Z,74.44
2023-02-05T10:05:36.838Z,74.21
2023-02-05T10:08:47.968Z,74.71
2023-02-05T10:11:50.681Z,74.67
2023-02-05T10:14:57.774Z,73.99
2023-02-05T10:17:55.932Z,74.11
2023-02-05T10:21:39.270Z,73.65
2023-02-05T10:24:27.904Z,73.61
2023-02-05T10:27:22.133Z,73.32
2023-02-05T10:30:14.198Z,73.02
2023-02-05T10:33:07.018Z,73.45
2023-02-05T10:36:06.802Z,73.14
2023-02-05T10:38:57.299Z,73.25
2023-02-05T10:41:48.796Z,72.36
2023-02-05T10:44:46.970Z,72.23
2023-02-05T10:48:11.420Z,72.37
2023-02-05T10:51:08.000Z,72.06
2023-02-05T10:53:53.755Z,71.83
2023-02-05T10:56:43.695Z,71.93
2023-02-05T10:59:32.850Z,71.83
2023-02-05T11:02:30.142Z,72.03
2023-02-05T11:05:38.941Z,71.50
2023-02-05T11:08:34.767Z,71.95
2023-02-05T11:11:22.484Z,72.23
2023-02-05T11:14:20.184Z,72.48
2023-02-05T11:17:15.717Z,71.91
2023-02-05T11:20:05.968Z,71.96
2023-02-05T11:23:11.487Z,71.82
2023-02-05T11:25:59.322Z,71.82
2023-02-05T11:28:45.182Z,72.56
2023-02-05T11:31:37.846Z,72.12
2023-02-05T11:34:23.461Z,71.92
2023-02-05T11:37:17.149Z,71.31
2023-02-05T11:40:03.294Z,71.11
2023-02-05T11:43:19.305Z,70.84
2023-02-05T11:46:09.828Z,70.75
2023-02-05T11:49:03.503Z,71.21
2023-02-05T11:51:56.301Z,70.64
2023-02-05T11:54:47.118Z,71.53
2023-02-05T11:57:39.250Z,71.19
2023-02-05T12:00:25.499Z,71.32
2023-02-05T12:03:18.366Z,70.75
2023-02-05T12:06:12.127Z,71.21
2023-02-05T12:08:57.592Z,71.76
2023-02-05T12:12:04.153Z,71.21
2023-02-05T12:15:14.679Z,70.49
2023-02-05T12:18:27.294Z,71.24
2023-02-05T12:21:51.912Z,71.52
2023-02-05T12:25:00.750Z,71.29
2023-02-05T12:28:04.900Z,71.20
2023-02-05T12:31:02.304Z,71.57
2023-02-05T12:34:14.997Z,71.16
2023-02-05T12:37:06.464Z,71.89
2023-02-05T12:40:09.745Z,71.71
2023-02-05T12:43:02.876Z,71.62
2023-02-05T12:45:57.799Z,71.92
2023-02-05T12:49:01.946Z,71.86
2023-02-05T12:52:11.750Z,69.20
2023-02-05T12:55:03.977Z,69.76
2023-02-05T12:58:03.626Z,70.51
2023-02-05T13:00:57.205Z,71.96
2023-02-05T13:03:48.525Z,72.44
2023-02-05T13:06:45.523Z,73.06
2023-02-05T13:09:56.595Z,73.66
2023-02-05T13:12:48.805Z,74.45
2023-02-05T13:15:42.011Z,74.71
2023-02-05T13:18:32.907Z,74.73
2023-02-05T13:21:38.490Z,73.59
2023-02-05T13:24:57.487Z,74.28
2023-02-05T13:28:08.635Z,74.46
2023-02-05T13:30:57.974Z,72.67
2023-02-05T13:33:44.542Z,73.00
2023-02-05T13:36:36.254Z,73.05
2023-02-05T13:39:46.620Z,72.25
2023-02-05T13:42:41.552Z,73.33
2023-02-05T13:45:49.343Z,73.55
2023-02-05T13:48:53.627Z,73.26
2023-02-05T13:51:47.661Z,73.66
2023-02-05T13:54:58.565Z,73.96
2023-02-05T13:58:09.211Z,74.12
2023-02-05T14:01:02.210Z,73.25
2023-02-05T14:04:08.853Z,72.75
2023-02-05T14:07:02.051Z,73.16
2023-02-05T14:09:56.987Z,72.51
2023-02-05T14:12:42.439Z,72.99
2023-02-05T14:15:41.123Z,72.67
2023-02-05T14:18:43.433Z,73.10
2023-02-05T14:21:35.320Z,73.11
2023-02-05T14:24:44.285Z,74.86
2023-02-05T14:27:29.738Z,75.33
2023-02-05T14:31:01.037Z,75.47
2023-02-05T14:33:46.989Z,75.81
2023-02-05T14:36:35.053Z,76.68
2023-02-05T14:39:27.550Z,76.68
2023-02-05T14:42:20.375Z,77.31
2023-02-05T14:45:06.147Z,77.62
2023-02-05T14:47:51.955Z,78.05
2023-02-05T14:50:37.827Z,77.72
2023-02-05T14:53:29.640Z,77.83
2023-02-05T14:56:31.749Z,78.27
2023-02-05T14:59:29.921Z,77.96
2023-02-05T15:02:57.502Z,77.15
2023-02-05T15:05:46.580Z,77.77
2023-02-05T15:08:34.638Z,77.05
2023-02-05T15:11:29.464Z,77.17
2023-02-05T15:14:21.518Z,76.61
2023-02-05T15:17:06.811Z,77.43
2023-02-05T15:19:56.563Z,77.51
2023-02-05T15:22:50.802Z,78.23
2023-02-05T15:25:41.091Z,78.50
2023-02-05T15:28:32.015Z,78.30
2023-02-05T15:31:33.840Z,78.06
2023-02-05T15:34:48.031Z,77.89
2023-02-05T15:37:43.736Z,78.16
2023-02-05T15:40:34.615Z,77.73
2023-02-05T15:43:23.015Z,77.82
2023-02-05T15:46:20.514Z,78.39
2023-02-05T15:49:06.268Z,79.10
2023-02-05T15:51:52.043Z,78.09
2023-02-05T15:54:38.293Z,78.45
2023-02-05T15:57:34.228Z,78.36
2023-02-05T16:00:27.198Z,78.48
2023-02-05T16:03:32.551Z,78.14
2023-02-05T16:06:24.059Z,78.62
2023-02-05T16:09:20.432Z,77.86
2023-02-05T16:12:13.637Z,77.74
2023-02-05T16:15:05.059Z,77.82
2023-02-05T16:17:52.257Z,77.84
2023-02-05T16:20:42.989Z,77.57
2023-02-05T16:23:44.320Z,77.99
2023-02-05T16:26:34.108Z,77.84
2023-02-05T16:29:29.657Z,77.50
2023-02-05T16:32:34.079Z,77.85
2023-02-05T16:35:39.544Z,78.44
2023-02-05T16:38:26.314Z,78.63
2023-02-05T16:41:27.291Z,78.58
2023-02-05T16:44:32.176Z,78.43
2023-02-05T16:47:21.296Z,78.61
2023-02-05T16:50:41.114Z,79.29
2023-02-05T16:53:28.945Z,78.43
2023-02-05T16:56:32.711Z,78.19
2023-02-05T16:59:39.430Z,78.67
2023-02-05T17:02:36.588Z,78.61
2023-02-05T17:05:25.937Z,79.42
2023-02-05T17:08:12.574Z,79.32
2023-02-05T17:11:01.960Z,79.57
2023-02-05T17:13:48.094Z,79.29
2023-02-05T17:16:33.670Z,79.43
2023-02-05T17:19:28.110Z,79.69
2023-02-05T17:22:14.105Z,79.61
2023-02-05T17:24:59.819Z,78.97
2023-02-05T17:27:46.081Z,79.36
2023-02-05T17:30:32.027Z,79.44
2023-02-05T17:33:22.093Z,79.37
2023-02-05T17:36:17.642Z,79.29
2023-02-05T17:39:03.728Z,78.90
2023-02-05T17:42:04.185Z,78.63
2023-02-05T17:44:51.523Z,79.18
2023-02-05T17:47:38.034Z,79.40
2023-02-05T17:50:24.891Z,79.71
2023-02-05T17:53:14.866Z,80.45
2023-02-05T17:56:01.323Z,80.20
2023-02-05T17:58:50.006Z,79.82
2023-02-05T18:01:36.671Z,80.23
2023-02-05T18:04:23.668Z,79.71
2023-02-05T18:07:39.758Z,79.50
2023-02-05T18:10:28.670Z,79.67
2023-02-05T18:13:17.430Z,78.75
2023-02-05T18:16:05.773Z,79.89
2023-02-05T18:18:52.660Z,79.61
2023-02-05T18:21:39.568Z,79.52
2023-02-05T18:24:25.929Z,79.93
2023-02-05T18:27:13.875Z,80.00
2023-02-05T18:30:04.188Z,79.86
2023-02-05T18:32:52.108Z,78.91
2023-02-05T18:35:38.821Z,80.06
2023-02-05T18:38:25.778Z,79.67
2023-02-05T18:41:18.640Z,79.68
2023-02-05T18:44:07.872Z,79.79
2023-02-05T18:46:54.833Z,80.36
2023-02-05T18:49:42.113Z,79.60
2023-02-05T18:52:31.621Z,79.32
2023-02-05T18:55:17.890Z,78.48
2023-02-05T18:58:05.942Z,79.47
2023-02-05T19:00:52.555Z,78.90
2023-02-05T19:03:41.391Z,79.80
2023-02-05T19:06:28.492Z,79.13
2023-02-05T19:09:18.232Z,79.95
2023-02-05T19:12:06.326Z,79.96
2023-02-05T19:14:53.795Z,79.16
2023-02-05T19:17:40.853Z,78.96
2023-02-05T19:20:30.946Z,78.86
2023-02-05T19:23:18.973Z,79.28
2023-02-05T19:26:30.639Z,79.63
2023-02-05T19:29:24.657Z,79.05
2023-02-05T19:32:12.782Z,79.58
2023-02-05T19:35:04.364Z,79.40
2023-02-05T19:37:57.412Z,79.59
2023-02-05T19:40:51.072Z,78.99
2023-02-05T19:43:39.167Z,78.86
2023-02-05T19:46:32.101Z,79.41
2023-02-05T19:49:23.163Z,79.19
2023-02-05T19:52:10.619Z,79.19
2023-02-05T19:54:57.097Z,79.34
2023-02-05T19:57:45.939Z,78.72
2023-02-05T20:00:33.803Z,78.47
2023-02-05T20:03:22.535Z,79.06
2023-02-05T20:06:19.075Z,79.48
2023-02-05T20:09:19.598Z,79.41
2023-02-05T20:12:12.701Z,78.86
2023-02-05T20:15:10.667Z,79.58
2023-02-05T20:18:05.637Z,79.54
2023-02-05T20:20:59.153Z,80.27
2023-02-05T20:23:51.883Z,79.31
2023-02-05T20:26:51.188Z,79.90
2023-02-05T20:29:58.201Z,80.17
2023-02-05T20:32:45.556Z,79.94
2023-02-05T20:35:36.679Z,79.97
2023-02-05T20:38:23.340Z,79.74
2023-02-05T20:41:15.348Z,79.60
2023-02-05T20:44:04.294Z,79.56
2023-02-05T20:46:53.337Z,79.95
2023-02-05T20:49:45.315Z,80.03
2023-02-05T20:52:32.125Z,79.97
2023-02-05T20:55:17.920Z,80.35
2023-02-05T20:58:03.776Z,79.87
2023-02-05T21:00:50.701Z,79.67
2023-02-05T21:03:38.269Z,79.84
2023-02-05T21:06:26.754Z,80.01
2023-02-05T21:09:16.619Z,79.79
2023-02-05T21:12:02.556Z,80.53
2023-02-05T21:14:48.274Z,80.69
2023-02-05T21:17:34.308Z,80.82
2023-02-05T21:20:19.783Z,79.77
2023-02-05T21:23:06.318Z,79.98
2023-02-05T21:25:52.279Z,79.72
2023-02-05T21:28:37.867Z,80.07
2023-02-05T21:31:25.534Z,80.70
2023-02-05T21:34:14.964Z,79.52
2023-02-05T21:37:01.030Z,79.64
2023-02-05T21:39:48.065Z,79.84
2023-02-05T21:42:34.592Z,79.75
2023-02-05T21:45:20.593Z,79.68
2023-02-05T21:48:07.130Z,79.24
2023-02-05T21:50:53.468Z,79.29
2023-02-05T21:53:40.353Z,79.21
2023-02-05T21:56:31.737Z,80.00
2023-02-05T21:59:20.306Z,80.18
2023-02-05T22:02:06.435Z,79.95
2023-02-05T22:04:52.285Z,79.47
2023-02-05T22:07:38.671Z,80.64
2023-02-05T22:10:24.874Z,80.14
2023-02-05T22:13:11.390Z,80.51
2023-02-05T22:16:12.229Z,79.32
2023-02-05T22:19:00.134Z,80.48
2023-02-05T22:21:45.452Z,79.23
2023-02-05T22:24:30.990Z,79.66
2023-02-05T22:27:17.646Z,79.83
2023-02-05T22:30:04.185Z,78.78
2023-02-05T22:32:50.332Z,79.07
2023-02-05T22:35:36.038Z,78.62
2023-02-05T22:38:22.273Z,79.08
2023-02-05T22:41:17.155Z,78.73
2023-02-05T22:44:05.986Z,79.00
2023-02-05T22:46:56.141Z,78.61
2023-02-05T22:49:42.420Z,79.69
2023-02-05T22:52:27.968Z,79.30
2023-02-05T22:55:13.838Z,78.60
2023-02-05T22:57:59.457Z,79.21
2023-02-05T23:00:45.243Z,78.85
2023-02-05T23:03:30.868Z,78.58
2023-02-05T23:06:19.360Z,77.98
2023-02-05T23:09:08.551Z,78.62
2023-02-05T23:11:55.562Z,78.57
2023-02-05T23:14:41.659Z,77.89
2023-02-05T23:17:27.673Z,77.72
2023-02-05T23:20:13.382Z,78.49
2023-02-05T23:22:59.231Z,78.53
2023-02-05T23:25:45.902Z,79.11
2023-02-05T23:28:31.579Z,78.67
2023-02-05T23:31:17.264Z,78.66
2023-02-05T23:34:04.174Z,79.47
2023-02-05T23:36:49.667Z,79.09
2023-02-05T23:39:36.673Z,78.92
2023-02-05T23:42:22.403Z,79.31
2023-02-05T23:45:08.095Z,79.36
2023-02-05T23:47:53.477Z,79.00
2023-02-05T23:50:39.504Z,79.24
2023-02-05T23:53:25.583Z,78.84
2023-02-05T23:56:11.990Z,79.34
2023-02-05T23:58:57.909Z,78.73
